Map

Track Data

SID SEASON NUMBER BASIN SUBBASIN NAME ISO_TIME NATURE LAT LON WMO_WIND WMO_PRES WMO_AGENCY TRACK_TYPE DIST2LAND LANDFALL IFLAG USA_AGENCY USA_ATCF_ID USA_LAT USA_LON USA_RECORD USA_STATUS USA_WIND USA_PRES USA_SSHS USA_R34_NE USA_R34_SE USA_R34_SW USA_R34_NW USA_R50_NE USA_R50_SE USA_R50_SW USA_R50_NW USA_R64_NE USA_R64_SE USA_R64_SW USA_R64_NW USA_POCI USA_ROCI USA_RMW USA_EYE TOKYO_LAT TOKYO_LON TOKYO_GRADE TOKYO_WIND TOKYO_PRES TOKYO_R50_DIR TOKYO_R50_LONG TOKYO_R50_SHORT TOKYO_R30_DIR TOKYO_R30_LONG TOKYO_R30_SHORT TOKYO_LAND CMA_LAT CMA_LON CMA_CAT CMA_WIND CMA_PRES HKO_LAT HKO_LON HKO_CAT HKO_WIND HKO_PRES NEWDELHI_LAT NEWDELHI_LON NEWDELHI_GRADE NEWDELHI_WIND NEWDELHI_PRES NEWDELHI_CI NEWDELHI_DP NEWDELHI_POCI REUNION_LAT REUNION_LON REUNION_TYPE REUNION_WIND REUNION_PRES REUNION_TNUM REUNION_CI REUNION_RMW REUNION_R34_NE REUNION_R34_SE REUNION_R34_SW REUNION_R34_NW REUNION_R50_NE REUNION_R50_SE REUNION_R50_SW REUNION_R50_NW REUNION_R64_NE REUNION_R64_SE REUNION_R64_SW REUNION_R64_NW BOM_LAT BOM_LON BOM_TYPE BOM_WIND BOM_PRES BOM_TNUM BOM_CI BOM_RMW BOM_R34_NE BOM_R34_SE BOM_R34_SW BOM_R34_NW BOM_R50_NE BOM_R50_SE BOM_R50_SW BOM_R50_NW BOM_R64_NE BOM_R64_SE BOM_R64_SW BOM_R64_NW BOM_ROCI BOM_POCI BOM_EYE BOM_POS_METHOD BOM_PRES_METHOD NADI_LAT NADI_LON NADI_CAT NADI_WIND NADI_PRES WELLINGTON_LAT WELLINGTON_LON WELLINGTON_WIND WELLINGTON_PRES DS824_LAT DS824_LON DS824_STAGE DS824_WIND DS824_PRES TD9636_LAT TD9636_LON TD9636_STAGE TD9636_WIND TD9636_PRES TD9635_LAT TD9635_LON TD9635_WIND TD9635_PRES TD9635_ROCI NEUMANN_LAT NEUMANN_LON NEUMANN_CLASS NEUMANN_WIND NEUMANN_PRES MLC_LAT MLC_LON MLC_CLASS MLC_WIND MLC_PRES USA_GUST BOM_GUST BOM_GUST_PER REUNION_GUST REUNION_GUST_PER USA_SEAHGT USA_SEARAD_NE USA_SEARAD_SE USA_SEARAD_SW USA_SEARAD_NW STORM_SPEED STORM_DIR
1976143N24271 1976 56 NA GM NOT_NAMED 1976-05-21 12:00:00 SS 24.0000 -89.0000 20 1010 hurdat_atl main 282 282 O_____________ hurdat_atl AL011976 24.0000 -89.0000 SD 20 1010 -2 10 325
1976143N24271 1976 56 NA GM NOT_NAMED 1976-05-21 15:00:00 SS 24.4202 -89.3219 main 331 331 P_____________ AL011976 24.4202 -89.3219 SD 20 1009 -2 10 326
1976143N24271 1976 56 NA GM NOT_NAMED 1976-05-21 18:00:00 SS 24.8000 -89.6000 20 1009 hurdat_atl main 382 382 O_____________ hurdat_atl AL011976 24.8000 -89.6000 SD 20 1009 -2 8 328
1976143N24271 1976 56 NA GM NOT_NAMED 1976-05-21 21:00:00 SS 25.1149 -89.8079 main 420 411 P_____________ AL011976 25.1149 -89.8079 SD 22 1007 -2 7 329
1976143N24271 1976 56 NA GM NOT_NAMED 1976-05-22 00:00:00 SS 25.4000 -90.0000 25 1006 hurdat_atl main 411 379 O_____________ hurdat_atl AL011976 25.4000 -90.0000 SD 25 1006 -2 7 324
1976143N24271 1976 56 NA GM NOT_NAMED 1976-05-22 03:00:00 SS 25.6701 -90.2576 main 379 346 P_____________ AL011976 25.6701 -90.2576 SD 25 1005 -2 8 323
1976143N24271 1976 56 NA GM NOT_NAMED 1976-05-22 06:00:00 SS 26.0000 -90.5000 25 1005 hurdat_atl main 346 279 O_____________ hurdat_atl AL011976 26.0000 -90.5000 SD 25 1005 -2 10 336
1976143N24271 1976 56 NA GM NOT_NAMED 1976-05-22 09:00:00 SS 26.5825 -90.7098 main 279 234 P_____________ AL011976 26.5825 -90.7098 SD 27 1004 -2 10 345
1976143N24271 1976 56 NA GM NOT_NAMED 1976-05-22 12:00:00 SS 27.0000 -90.8000 30 1004 hurdat_atl main 234 234 O_____________ hurdat_atl AL011976 27.0000 -90.8000 SD 30 1004 -2 3 345
1976143N24271 1976 56 NA GM NOT_NAMED 1976-05-22 15:00:00 SS 26.8393 -90.7853 main 256 256 P_____________ AL011976 26.8393 -90.7853 SD 30 1003 -2 6 152
1976143N24271 1976 56 NA GM NOT_NAMED 1976-05-22 18:00:00 SS 26.5000 -90.5000 30 1002 hurdat_atl main 290 290 O_____________ hurdat_atl AL011976 26.5000 -90.5000 SD 30 1002 -2 10 121
1976143N24271 1976 56 NA GM NOT_NAMED 1976-05-22 21:00:00 SS 26.3112 -89.8014 main 309 301 P_____________ AL011976 26.3112 -89.8014 SD 32 1001 -2 14 98
1976143N24271 1976 56 NA GM NOT_NAMED 1976-05-23 00:00:00 SS 26.3000 -89.0000 35 1001 hurdat_atl main 301 283 O_____________ hurdat_atl AL011976 26.3000 -89.0000 SS 35 1001 -2 12 80
1976143N24271 1976 56 NA GM NOT_NAMED 1976-05-23 03:00:00 SS 26.5209 -88.5359 main 285 247 P_____________ AL011976 26.5209 -88.5359 SS 35 1000 -2 11 52
1976143N24271 1976 56 NA GM NOT_NAMED 1976-05-23 06:00:00 SS 27.0000 -88.0000 35 999 hurdat_atl main 247 234 O_____________ hurdat_atl AL011976 27.0000 -88.0000 SS 35 999 -2 18 48
1976143N24271 1976 56 NA GM NOT_NAMED 1976-05-23 09:00:00 SS 27.7057 -87.0765 main 242 150 P_____________ AL011976 27.7057 -87.0765 SS 37 998 -2 23 50
1976143N24271 1976 56 NA GM NOT_NAMED 1976-05-23 12:00:00 SS 28.5000 -86.0000 40 998 hurdat_atl main 146 66 O_____________ hurdat_atl AL011976 28.5000 -86.0000 SS 40 998 -2 23 51
1976143N24271 1976 56 NA GM NOT_NAMED 1976-05-23 15:00:00 SS 29.1717 -84.9986 main 55 22 P_____________ AL011976 29.1717 -84.9986 SS 40 998 -2 22 53
1976143N24271 1976 56 NA GM NOT_NAMED 1976-05-23 18:00:00 SS 29.8000 -84.0000 40 998 hurdat_atl main 29 0 O_____________ hurdat_atl AL011976 29.8000 -84.0000 SS 40 998 -2 21 54
1976143N24271 1976 56 NA NA NOT_NAMED 1976-05-23 21:00:00 SS 30.4367 -82.9995 main 0 0 P_____________ AL011976 30.4367 -82.9995 SS 40 998 -2 21 55
1976143N24271 1976 56 NA NA NOT_NAMED 1976-05-24 00:00:00 SS 31.0000 -82.0000 40 998 hurdat_atl main 0 0 O_____________ hurdat_atl AL011976 31.0000 -82.0000 SS 40 998 -2 20 60
1976143N24271 1976 56 NA NA NOT_NAMED 1976-05-24 03:00:00 SS 31.4142 -80.9977 main 28 28 P_____________ AL011976 31.4142 -80.9977 SS 40 998 -2 19 65
1976143N24271 1976 56 NA NA NOT_NAMED 1976-05-24 06:00:00 SS 31.8000 -80.0000 40 998 hurdat_atl main 79 72 O_____________ hurdat_atl AL011976 31.8000 -80.0000 SS 40 998 -2 19 62
1976143N24271 1976 56 NA NA NOT_NAMED 1976-05-24 09:00:00 SS 32.3067 -79.0002 main 86 81 P_____________ AL011976 32.3067 -79.0001 SS 42 997 -2 20 59
1976143N24271 1976 56 NA NA NOT_NAMED 1976-05-24 12:00:00 SS 32.8000 -78.0000 45 996 hurdat_atl main 120 106 O_____________ hurdat_atl AL011976 32.8000 -78.0000 SS 45 996 -2 19 62
1976143N24271 1976 56 NA NA NOT_NAMED 1976-05-24 15:00:00 SS 33.1867 -76.9990 main 121 121 P_____________ AL011976 33.1867 -76.9990 SS 45 995 -2 18 67
1976143N24271 1976 56 NA NA NOT_NAMED 1976-05-24 18:00:00 SS 33.5000 -76.0000 45 994 hurdat_atl main 141 138 O_____________ hurdat_atl AL011976 33.5000 -76.0000 SS 45 994 -2 18 72
1976143N24271 1976 56 NA NA NOT_NAMED 1976-05-24 21:00:00 SS 33.7417 -74.9981 main 177 177 P_____________ AL011976 33.7417 -74.9981 SS 45 994 -2 17 73
1976143N24271 1976 56 NA NA NOT_NAMED 1976-05-25 00:00:00 SS 34.0000 -74.0000 45 994 hurdat_atl main 233 233 O_____________ hurdat_atl AL011976 34.0000 -74.0000 SS 45 994 -2 17 68
1976143N24271 1976 56 NA NA NOT_NAMED 1976-05-25 03:00:00 SS 34.3832 -73.0370 main 275 275 P_____________ AL011976 34.3832 -73.0370 SS 45 995 -2 18 64
1976143N24271 1976 56 NA NA NOT_NAMED 1976-05-25 06:00:00 SS 34.8000 -72.0000 45 996 hurdat_atl main 335 335 O_____________ hurdat_atl AL011976 34.8000 -72.0000 SS 45 996 -2 20 67
1976143N24271 1976 56 NA NA NOT_NAMED 1976-05-25 09:00:00 SS 35.1723 -70.7873 main 429 429 P_____________ AL011976 35.1723 -70.7873 SS 42 997 -2 22 71
1976143N24271 1976 56 NA NA NOT_NAMED 1976-05-25 12:00:00 SS 35.5000 -69.5000 40 998 hurdat_atl main 541 541 O_____________ hurdat_atl AL011976 35.5000 -69.5000 SS 40 998 -2 22 74
1976143N24271 1976 56 NA NA NOT_NAMED 1976-05-25 15:00:00 SS 35.7694 -68.2385 main 656 656 P_____________ AL011976 35.7694 -68.2385 SS 40 998 -2 21 76
1976143N24271 1976 56 NA NA NOT_NAMED 1976-05-25 18:00:00 SS 36.0000 -67.0000 40 998 hurdat_atl main 685 O_____________ hurdat_atl AL011976 36.0000 -67.0000 SS 40 998 -2 21 77

About IBTrACS Database

This database is a web-friendly format of International Best Track Archive for Climate Stewardship (IBTrACS), a global best track data archive curated by NOAA dating back to 1842.

Updated: 2021-10-08